Ronnie Rogers — WDD2270 — position and weather

sailwx.info

Track history (hours):
 
Tides and Currents Weather Stations Pressure Air Temp Water Temp Dewpoint Dewpoint Depression Visibility Wind Speed Wind Dir Waves Ship Positions

Ronnie Rogers

Owner: Florida Marine, LLC, Mandeville, LA. More information available from US FCC via Universal Licensing System and Coast Guard Vessel Documentation Center.

Last reported at 2018-Apr-21 22:17 UTC. Time now 2018-Apr-23 23:25 UTC.
Position N 29°36' W 094°24'.

Length 27 m; draft 2.4 m.

Type: Towing. MMSI: 367113160.

Date/timePositionNaut miles runAvg speedWind from/ knotsBaromVisibWave heightAir tempDewpointWater temp
2018-Apr-21 22:17N 29°36' W 094°24'2 5.4
2018-Apr-21 21:52N 29°36' W 094°22'1 2.5
2018-Apr-21 21:19N 29°37' W 094°20'0 1.2
2018-Apr-21 20:59N 29°37' W 094°20'3 5.6
2018-Apr-21 20:30N 29°39' W 094°17'3 5.9
2018-Apr-21 20:00N 29°40' W 094°14'3 5.9
2018-Apr-21 19:30N 29°41' W 094°11'3 6.1
2018-Apr-21 18:59N 29°43' W 094°08'1 1.7
2018-Apr-21 18:30N 29°43' W 094°07'3 6.2
2018-Apr-21 18:00N 29°45' W 094°04'3 6.1
2018-Apr-21 17:30N 29°47' W 094°02'3 5.6
2018-Apr-21 17:00N 29°49' W 093°59'1 2.0
2018-Apr-21 16:30N 29°49' W 093°58'2 3.9
2018-Apr-21 16:00N 29°51' W 093°57'3 5.7
2018-Apr-21 15:30N 29°53' W 093°55'3 6.9
2018-Apr-21 15:00N 29°56' W 093°52'3 6.3
2018-Apr-21 14:30N 29°58' W 093°50'3 6.3
2018-Apr-21 14:00N 29°60' W 093°47'4 7.3
2018-Apr-21 13:30N 30°02' W 093°44'3 6.2
2018-Apr-21 12:58N 30°04' W 093°41'3 5.7
2018-Apr-21 12:27N 30°04' W 093°37'3 5.2
2018-Apr-21 11:57N 30°04' W 093°34'2 5.0
2018-Apr-21 11:30N 30°04' W 093°32'2 5.0
2018-Apr-21 11:00N 30°04' W 093°29'2 4.9
2018-Apr-21 10:30N 30°04' W 093°26'2 4.7
2018-Apr-21 10:00N 30°04' W 093°23'2 4.0
2018-Apr-21 09:30N 30°04' W 093°21'2 3.5
2018-Apr-21 09:00N 30°05' W 093°20'1 1.7
2018-Apr-21 08:30N 30°06' W 093°20'2 3.1
2018-Apr-21 08:00N 30°08' W 093°20'1 1.2
2018-Apr-21 07:29N 30°08' W 093°19'0 0.1
2018-Apr-21 07:00N 30°08' W 093°19'0 0.0
2018-Apr-21 06:30N 30°08' W 093°19'0 0.0
2018-Apr-21 06:00N 30°08' W 093°19'0 0.0
2018-Apr-21 05:30N 30°08' W 093°19'0 0.0
2018-Apr-21 04:59N 30°08' W 093°19'0 0.0
2018-Apr-21 04:29N 30°08' W 093°19'0 0.0
2018-Apr-21 04:00N 30°08' W 093°19'0 0.0
2018-Apr-21 03:30N 30°08' W 093°19'0 0.0
2018-Apr-21 03:00N 30°08' W 093°19'0 0.0
2018-Apr-21 02:30N 30°08' W 093°19'0 0.0
2018-Apr-21 01:58N 30°08' W 093°19'0 0.0
2018-Apr-21 01:30N 30°08' W 093°19'0 0.0
2018-Apr-21 01:00N 30°08' W 093°19'0 0.0
2018-Apr-21 00:30N 30°08' W 093°19'0 0.0
2018-Apr-21 00:00N 30°08' W 093°19'0 0.0
2018-Apr-20 23:30N 30°08' W 093°19'0 0.0
2018-Apr-20 22:57N 30°08' W 093°19'0 0.0
2018-Apr-20 22:30N 30°08' W 093°19'0 0.0
2018-Apr-20 22:00N 30°08' W 093°19'0 0.0
2018-Apr-20 21:30N 30°08' W 093°19'0 0.0
2018-Apr-20 21:00N 30°08' W 093°19'0 0.0
2018-Apr-20 20:30N 30°08' W 093°19'0 0.0
2018-Apr-20 20:00N 30°08' W 093°19'0 0.0
2018-Apr-20 19:30N 30°08' W 093°19'0 0.0
2018-Apr-20 19:00N 30°08' W 093°19'0 0.0
2018-Apr-20 18:28N 30°08' W 093°19'0 0.0
2018-Apr-20 18:00N 30°08' W 093°19'0 0.0
2018-Apr-20 17:29N 30°08' W 093°19'0 0.0
2018-Apr-20 17:00N 30°08' W 093°19'0 0.0
2018-Apr-20 16:30N 30°08' W 093°19'0 0.0
2018-Apr-20 16:00N 30°08' W 093°19'0 0.0
2018-Apr-20 15:30N 30°08' W 093°19'0 0.0
2018-Apr-20 15:00N 30°08' W 093°19'0 0.0
2018-Apr-20 14:30N 30°08' W 093°19'0 0.0
2018-Apr-20 14:00N 30°08' W 093°19'0 0.0
2018-Apr-20 13:28N 30°08' W 093°19'0 0.0
2018-Apr-20 13:00N 30°08' W 093°19'0 0.0
2018-Apr-20 12:30N 30°08' W 093°19'0 0.1
2018-Apr-20 12:00N 30°08' W 093°19'1 1.8
2018-Apr-20 11:30N 30°07' W 093°20'1 2.7
2018-Apr-20 11:00N 30°06' W 093°20'1 2.5
2018-Apr-20 10:30N 30°06' W 093°18'1 2.0
2018-Apr-20 10:00N 30°05' W 093°17'2 3.1
2018-Apr-20 09:30N 30°04' W 093°16'0 0.2
2018-Apr-20 09:00N 30°04' W 093°16'0 0.0
2018-Apr-20 08:30N 30°04' W 093°16'0 0.0
2018-Apr-20 08:00N 30°04' W 093°16'0 0.0
2018-Apr-20 07:29N 30°04' W 093°16'0 0.1
2018-Apr-20 07:00N 30°04' W 093°16'0 0.3
2018-Apr-20 06:29N 30°04' W 093°16'0 0.0
2018-Apr-20 06:00N 30°04' W 093°16'0 0.0
2018-Apr-20 05:30N 30°04' W 093°16'0 0.4
2018-Apr-20 05:00N 30°04' W 093°16'1 2.7
2018-Apr-20 04:30N 30°02' W 093°16'2 3.5
2018-Apr-20 04:00N 30°01' W 093°14'1 2.7
2018-Apr-20 03:30N 29°60' W 093°13'2 4.7
2018-Apr-20 03:00N 29°58' W 093°12'2 4.8
2018-Apr-20 02:30N 29°56' W 093°10'2 4.6
2018-Apr-20 01:59N 29°56' W 093°07'41 4.8
2018-Apr-19 17:17N 29°50' W 092°20'1 4.7
2018-Apr-19 16:58N 29°50' W 092°18'2 4.6
2018-Apr-19 16:30N 29°49' W 092°16'3 5.3
2018-Apr-19 16:00N 29°48' W 092°13'1 2.8
2018-Apr-19 15:30N 29°47' W 092°12'1 2.2
2018-Apr-19 15:00N 29°47' W 092°11'1 1.7
2018-Apr-19 14:30N 29°47' W 092°10'2 3.8
2018-Apr-19 13:59N 29°47' W 092°08'2 5.0
2018-Apr-19 13:30N 29°48' W 092°05'67 3.4
2018-Apr-18 17:54N 29°32' W 090°50'2 5.1
2018-Apr-18 17:30N 29°32' W 090°48'2 4.4
2018-Apr-18 17:00N 29°33' W 090°46'2 4.1
2018-Apr-18 16:30N 29°34' W 090°44'1 2.5
2018-Apr-18 16:00N 29°35' W 090°43'2 3.2
2018-Apr-18 15:30N 29°36' W 090°43'1 1.6
2018-Apr-18 15:00N 29°37' W 090°42'0 0.0
2018-Apr-18 14:25N 29°37' W 090°42'0 0.0
2018-Apr-18 13:58N 29°37' W 090°42'0 0.0
2018-Apr-18 13:30N 29°37' W 090°42'0 0.1
2018-Apr-18 13:00N 29°37' W 090°42'0 0.0
2018-Apr-18 12:30N 29°37' W 090°42'0 0.0
2018-Apr-18 12:00N 29°37' W 090°42'0 0.0
2018-Apr-18 11:30N 29°37' W 090°42'0 0.0
2018-Apr-18 11:00N 29°37' W 090°42'0 0.0
2018-Apr-18 10:30N 29°37' W 090°42'0 0.0
2018-Apr-18 10:00N 29°37' W 090°42'0 0.0
2018-Apr-18 09:30N 29°37' W 090°42'0 0.0
2018-Apr-18 09:00N 29°37' W 090°42'0 0.0
2018-Apr-18 08:30N 29°37' W 090°42'0 0.0
2018-Apr-18 08:00N 29°37' W 090°42'0 0.0
2018-Apr-18 07:30N 29°37' W 090°42'0 0.0
2018-Apr-18 07:00N 29°37' W 090°42'0 0.0
2018-Apr-18 06:30N 29°37' W 090°42'0 0.0
2018-Apr-18 06:00N 29°37' W 090°42'0 0.0
2018-Apr-18 05:30N 29°37' W 090°42'0 0.0
2018-Apr-18 05:00N 29°37' W 090°42'0 0.0
2018-Apr-18 04:30N 29°37' W 090°42'0 0.0
2018-Apr-18 04:00N 29°37' W 090°42'0 0.0
2018-Apr-18 03:30N 29°37' W 090°42'0 0.0
2018-Apr-18 03:00N 29°37' W 090°42'0 0.0
2018-Apr-18 02:30N 29°37' W 090°42'0 0.0
2018-Apr-18 01:58N 29°37' W 090°42'0 0.0
2018-Apr-18 01:30N 29°37' W 090°42'0 0.0
2018-Apr-18 01:00N 29°37' W 090°42'0 0.1
2018-Apr-18 00:30N 29°37' W 090°42'0 0.1
2018-Apr-18 00:00N 29°37' W 090°42'0 0.0
2018-Apr-17 23:30N 29°37' W 090°42'0 0.0
2018-Apr-17 23:00N 29°37' W 090°42'0 0.0
2018-Apr-17 22:30N 29°37' W 090°42'0 0.0
2018-Apr-17 22:00N 29°37' W 090°42'0 0.0
2018-Apr-17 21:30N 29°37' W 090°42'0 0.0
2018-Apr-17 21:00N 29°37' W 090°42'0 0.0
2018-Apr-17 20:30N 29°37' W 090°42'0 0.0
2018-Apr-17 19:59N 29°37' W 090°42'0 0.0
2018-Apr-17 19:27N 29°37' W 090°42'0 0.0
2018-Apr-17 19:00N 29°37' W 090°42'0 0.0
2018-Apr-17 18:30N 29°37' W 090°42'0 0.0
2018-Apr-17 18:00N 29°37' W 090°42'0 0.0
2018-Apr-17 17:30N 29°37' W 090°42'0 0.0
2018-Apr-17 17:00N 29°37' W 090°42'0 0.0
2018-Apr-17 16:30N 29°37' W 090°42'0 0.0
2018-Apr-17 16:00N 29°37' W 090°42'0 0.0
2018-Apr-17 15:30N 29°37' W 090°42'0 0.0
2018-Apr-17 15:00N 29°37' W 090°42'0 0.0
2018-Apr-17 14:30N 29°37' W 090°42'0 0.0
2018-Apr-17 14:00N 29°37' W 090°42'0 0.0
2018-Apr-17 13:30N 29°37' W 090°42'0 0.0
2018-Apr-17 13:00N 29°37' W 090°42'0 0.0
2018-Apr-17 12:30N 29°37' W 090°42'0 0.0
2018-Apr-17 12:00N 29°37' W 090°42'0 0.0
2018-Apr-17 11:30N 29°37' W 090°42'0 0.0
2018-Apr-17 11:00N 29°37' W 090°42'0 0.0
2018-Apr-17 10:30N 29°37' W 090°42'0 0.0
2018-Apr-17 10:00N 29°37' W 090°42'0 0.0
2018-Apr-17 09:30N 29°37' W 090°42'0 0.0
2018-Apr-17 09:00N 29°37' W 090°42'0 0.0
2018-Apr-17 08:30N 29°37' W 090°42'0 0.0
2018-Apr-17 08:00N 29°37' W 090°42'0 0.0
2018-Apr-17 07:30N 29°37' W 090°42'0 0.0
2018-Apr-17 07:00N 29°37' W 090°42'0 0.0
2018-Apr-17 06:30N 29°37' W 090°42'0 0.1
2018-Apr-17 06:00N 29°37' W 090°42'1 2.6
2018-Apr-17 05:30N 29°36' W 090°43'2 3.9
2018-Apr-17 05:00N 29°34' W 090°43'3 5.3
2018-Apr-17 04:30N 29°32' W 090°46'124 4.9
2018-Apr-16 03:07N 29°56' W 093°06'1 6.2
2018-Apr-16 02:59N 29°56' W 093°07'3 5.5
2018-Apr-16 02:30N 29°56' W 093°10'3 5.8
2018-Apr-16 02:00N 29°59' W 093°12'3 5.5
2018-Apr-16 01:30N 30°01' W 093°14'3 5.3
2018-Apr-16 01:00N 30°03' W 093°16'3 5.4
2018-Apr-16 00:30N 30°05' W 093°17'1 1.7
2018-Apr-15 23:59N 30°06' W 093°18'0 0.6
2018-Apr-15 23:30N 30°06' W 093°18'0 0.0
2018-Apr-15 23:00N 30°06' W 093°18'0 0.0
2018-Apr-15 22:30N 30°06' W 093°18'0 0.0
2018-Apr-15 22:00N 30°06' W 093°18'0 0.0
2018-Apr-15 21:30N 30°06' W 093°18'0 0.1
2018-Apr-15 21:00N 30°06' W 093°18'0 0.0
2018-Apr-15 20:30N 30°06' W 093°18'0 0.0
2018-Apr-15 20:00N 30°06' W 093°18'0 0.0
2018-Apr-15 19:30N 30°06' W 093°18'0 0.0
2018-Apr-15 18:59N 30°06' W 093°18'0 0.2
2018-Apr-15 18:30N 30°06' W 093°18'1 2.8
2018-Apr-15 18:00N 30°06' W 093°20'1 2.9
2018-Apr-15 17:30N 30°08' W 093°20'0 0.9
2018-Apr-15 17:00N 30°08' W 093°19'0 0.0
2018-Apr-15 16:30N 30°08' W 093°19'0 0.0
2018-Apr-15 16:00N 30°08' W 093°19'0 0.0
2018-Apr-15 15:30N 30°08' W 093°19'0 0.0
2018-Apr-15 14:55N 30°08' W 093°19'0 0.0
2018-Apr-15 14:30N 30°08' W 093°19'0 0.0
2018-Apr-15 14:00N 30°08' W 093°19'0 0.0
2018-Apr-15 13:30N 30°08' W 093°19'0 0.0
2018-Apr-15 13:00N 30°08' W 093°19'0 0.0
2018-Apr-15 12:30N 30°08' W 093°19'0 0.0
2018-Apr-15 12:00N 30°08' W 093°19'0 0.0
2018-Apr-15 11:30N 30°08' W 093°19'0 0.0
2018-Apr-15 11:00N 30°08' W 093°19'0 0.0
2018-Apr-15 10:28N 30°08' W 093°19'0 0.0
2018-Apr-15 10:00N 30°08' W 093°19'0 0.0
2018-Apr-15 09:30N 30°08' W 093°19'0 0.0
2018-Apr-15 09:00N 30°08' W 093°19'0 0.0
2018-Apr-15 08:30N 30°08' W 093°19'0 0.0
2018-Apr-15 08:00N 30°08' W 093°19'0 0.0
2018-Apr-15 07:30N 30°08' W 093°19'0 0.0
2018-Apr-15 06:59N 30°08' W 093°19'0 0.0
2018-Apr-15 06:30N 30°08' W 093°19'0 0.0
2018-Apr-15 06:00N 30°08' W 093°19'0 0.0
2018-Apr-15 05:28N 30°08' W 093°19'0 0.0
2018-Apr-15 05:00N 30°08' W 093°19'0 0.0
2018-Apr-15 04:26N 30°08' W 093°19'0 0.0
2018-Apr-15 04:00N 30°08' W 093°19'0 0.0
2018-Apr-15 03:30N 30°08' W 093°19'0 0.0
2018-Apr-15 03:00N 30°08' W 093°19'0 0.0
2018-Apr-15 02:30N 30°08' W 093°19'0 0.4
2018-Apr-15 02:00N 30°08' W 093°19'0 0.2
2018-Apr-15 01:30N 30°08' W 093°20'0 0.0
2018-Apr-15 01:00N 30°08' W 093°20'0 0.0
2018-Apr-15 00:30N 30°08' W 093°20'0 0.4
2018-Apr-15 00:00N 30°08' W 093°20'2 3.0
2018-Apr-14 23:30N 30°06' W 093°20'1 2.8
2018-Apr-14 23:00N 30°05' W 093°20'0 0.3
2018-Apr-14 22:30N 30°05' W 093°20'0 0.1
2018-Apr-14 22:00N 30°05' W 093°20'0 0.0
2018-Apr-14 21:30N 30°05' W 093°20'0 0.0
2018-Apr-14 21:00N 30°05' W 093°20'0 0.0
2018-Apr-14 20:30N 30°05' W 093°20'0 0.0
2018-Apr-14 20:00N 30°05' W 093°20'0 0.0
2018-Apr-14 19:30N 30°05' W 093°20'0 0.0
2018-Apr-14 19:00N 30°05' W 093°20'0 0.0
2018-Apr-14 18:30N 30°05' W 093°20'0 0.0
2018-Apr-14 18:00N 30°05' W 093°20'0 0.0
2018-Apr-14 17:30N 30°05' W 093°20'0 0.0
2018-Apr-14 17:00N 30°05' W 093°20'0 0.0
2018-Apr-14 16:30N 30°05' W 093°20'0 0.0
2018-Apr-14 16:00N 30°05' W 093°20'0 0.0
2018-Apr-14 15:30N 30°05' W 093°20'0 0.0
2018-Apr-14 15:00N 30°05' W 093°20'0 0.0
2018-Apr-14 14:30N 30°05' W 093°20'0 0.0
2018-Apr-14 14:00N 30°05' W 093°20'0 0.0
2018-Apr-14 13:30N 30°05' W 093°20'0 0.0
2018-Apr-14 13:00N 30°05' W 093°20'0 0.0
2018-Apr-14 12:30N 30°05' W 093°20'0 0.0
2018-Apr-14 12:00N 30°05' W 093°20'0 0.0
2018-Apr-14 11:30N 30°05' W 093°20'0 0.0
2018-Apr-14 11:00N 30°05' W 093°20'0 0.0
2018-Apr-14 10:30N 30°05' W 093°20'0 0.0
2018-Apr-14 09:58N 30°05' W 093°20'0 0.0
2018-Apr-14 09:30N 30°05' W 093°20'0 0.0
2018-Apr-14 08:57N 30°05' W 093°20'0 0.0
2018-Apr-14 08:30N 30°05' W 093°20'0 0.0
2018-Apr-14 07:59N 30°05' W 093°20'0 0.0
2018-Apr-14 07:30N 30°05' W 093°20'0 0.0
2018-Apr-14 06:58N 30°05' W 093°20'0 0.0
2018-Apr-14 06:30N 30°05' W 093°20'0 0.0
2018-Apr-14 06:00N 30°05' W 093°20'0 0.0
2018-Apr-14 05:30N 30°05' W 093°20'0 0.0
2018-Apr-14 05:00N 30°05' W 093°20'0 0.0
2018-Apr-14 04:30N 30°05' W 093°20'0 0.0
2018-Apr-14 04:00N 30°05' W 093°20'0 0.0
2018-Apr-14 03:30N 30°05' W 093°20'0 0.0
2018-Apr-14 03:00N 30°05' W 093°20'0 0.0
2018-Apr-14 02:30N 30°05' W 093°20'0 0.0
2018-Apr-14 02:00N 30°05' W 093°20'0 0.0
2018-Apr-14 01:30N 30°05' W 093°20'0 0.0
2018-Apr-14 00:59N 30°05' W 093°20'0 0.0
2018-Apr-14 00:30N 30°05' W 093°20'0 0.0
2018-Apr-14 00:00N 30°05' W 093°20'0 0.0
2018-Apr-13 23:29N 30°05' W 093°20'0 0.0
2018-Apr-13 23:00N 30°05' W 093°20'0 0.0
2018-Apr-13 22:27N 30°05' W 093°20'0 0.0
2018-Apr-13 22:00N 30°05' W 093°20'0 0.0
2018-Apr-13 21:30N 30°05' W 093°20'0 0.0
2018-Apr-13 21:00N 30°05' W 093°20'0 0.1
2018-Apr-13 20:30N 30°05' W 093°20'1 1.2
2018-Apr-13 20:00N 30°04' W 093°20'1 1.2
2018-Apr-13 19:28N 30°05' W 093°20'0 0.0
2018-Apr-13 18:59N 30°05' W 093°20'0 0.0
2018-Apr-13 18:30N 30°05' W 093°20'0 0.0
2018-Apr-13 17:57N 30°05' W 093°20'1 1.3
2018-Apr-13 17:30N 30°04' W 093°20'1 1.8
2018-Apr-13 17:00N 30°05' W 093°20'2 3.8
2018-Apr-13 16:30N 30°04' W 093°21'0 0.0
2018-Apr-13 16:00N 30°04' W 093°21'0 0.0
2018-Apr-13 15:30N 30°04' W 093°21'1 1.3
2018-Apr-13 15:00N 30°04' W 093°21'1 2.0
2018-Apr-13 14:30N 30°05' W 093°20'0 0.0
2018-Apr-13 14:00N 30°05' W 093°20'0 0.0
2018-Apr-13 13:30N 30°05' W 093°20'0 0.0
2018-Apr-13 13:00N 30°05' W 093°20'0 0.0
2018-Apr-13 12:30N 30°05' W 093°20'0 0.0
2018-Apr-13 12:00N 30°05' W 093°20'0 0.0
2018-Apr-13 11:30N 30°05' W 093°20'0 0.0
2018-Apr-13 11:00N 30°05' W 093°20'0 0.0
2018-Apr-13 10:29N 30°05' W 093°20'0 0.4
2018-Apr-13 10:00N 30°05' W 093°20'1 2.4
2018-Apr-13 09:30N 30°06' W 093°19'0 0.1
2018-Apr-13 09:00N 30°06' W 093°19'0 0.1
2018-Apr-13 08:30N 30°06' W 093°19'1 2.5
2018-Apr-13 08:00N 30°05' W 093°20'2 3.7
2018-Apr-13 07:30N 30°04' W 093°21'2 4.4
2018-Apr-13 07:00N 30°04' W 093°24'2 4.9
2018-Apr-13 06:30N 30°04' W 093°27'3 5.3
2018-Apr-13 06:00N 30°04' W 093°30'8 5.8
2018-Apr-13 04:35N 30°04' W 093°39'1 6.3
2018-Apr-13 04:29N 30°04' W 093°40'3 6.1
2018-Apr-13 04:00N 30°03' W 093°43'3 6.1
2018-Apr-13 03:30N 30°01' W 093°46'3 6.1
2018-Apr-13 03:00N 29°59' W 093°49'3 5.6
2018-Apr-13 02:30N 29°58' W 093°51'3 7.0
2018-Apr-13 02:00N 29°55' W 093°53'4 7.0
2018-Apr-13 01:30N 29°52' W 093°56'3 5.7
2018-Apr-13 01:00N 29°50' W 093°58'2 4.5
2018-Apr-13 00:30N 29°48' W 093°60'3 5.2
2018-Apr-13 00:00N 29°47' W 094°02'3 5.1
2018-Apr-12 23:30N 29°45' W 094°04'2 4.9
2018-Apr-12 23:00N 29°43' W 094°07'2 4.9
2018-Apr-12 22:30N 29°42' W 094°09'2 4.7
2018-Apr-12 21:59N 29°41' W 094°11'2 4.5
2018-Apr-12 21:30N 29°40' W 094°14'3 3.8
2018-Apr-12 20:47N 29°39' W 094°16'27 4.3
2018-Apr-12 14:31N 29°25' W 094°44'1 4.8
2018-Apr-12 14:14N 29°24' W 094°45'1 2.0
2018-Apr-12 13:52N 29°24' W 094°45'7 1.3
2018-Apr-12 09:02N 29°20' W 094°51'1 4.4
2018-Apr-12 08:50N 29°19' W 094°52'3 5.0
2018-Apr-12 08:15N 29°17' W 094°54'4 5.2
2018-Apr-12 07:32N 29°17' W 094°58'0 4.5
2018-Apr-12 07:30N 29°17' W 094°59'1 1.0
2018-Apr-12 06:59N 29°16' W 094°59'1 1.9
2018-Apr-12 06:30N 29°16' W 094°60'2 4.7
2018-Apr-12 06:00N 29°14' W 095°01'2 4.2
2018-Apr-12 05:30N 29°12' W 095°03'5 4.8
2018-Apr-12 04:27N 29°10' W 095°08'2 4.8
2018-Apr-12 03:57N 29°08' W 095°10'2 4.7
2018-Apr-12 03:30N 29°07' W 095°12'  
Track history (hours):
 
Tides and Currents Weather Stations Pressure Air Temp Water Temp Dewpoint Dewpoint Depression Visibility Wind Speed Wind Dir Waves Ship Positions

Ronnie Rogers

Owner: Florida Marine, LLC, Mandeville, LA. More information available from US FCC via Universal Licensing System and Coast Guard Vessel Documentation Center.

Last reported at 2018-Apr-21 22:17 UTC. Time now 2018-Apr-23 23:25 UTC.
Position N 29°36' W 094°24'.

Length 27 m; draft 2.4 m.

Type: Towing. MMSI: 367113160.

Date/timePositionNaut miles runAvg speedWind from/ knotsBaromVisibWave heightAir tempDewpointWater temp
2018-Apr-21 22:17N 29°36' W 094°24'2 5.4
2018-Apr-21 21:52N 29°36' W 094°22'1 2.5
2018-Apr-21 21:19N 29°37' W 094°20'0 1.2
2018-Apr-21 20:59N 29°37' W 094°20'3 5.6
2018-Apr-21 20:30N 29°39' W 094°17'3 5.9
2018-Apr-21 20:00N 29°40' W 094°14'3 5.9
2018-Apr-21 19:30N 29°41' W 094°11'3 6.1
2018-Apr-21 18:59N 29°43' W 094°08'1 1.7
2018-Apr-21 18:30N 29°43' W 094°07'3 6.2
2018-Apr-21 18:00N 29°45' W 094°04'3 6.1
2018-Apr-21 17:30N 29°47' W 094°02'3 5.6
2018-Apr-21 17:00N 29°49' W 093°59'1 2.0
2018-Apr-21 16:30N 29°49' W 093°58'2 3.9
2018-Apr-21 16:00N 29°51' W 093°57'3 5.7
2018-Apr-21 15:30N 29°53' W 093°55'3 6.9
2018-Apr-21 15:00N 29°56' W 093°52'3 6.3
2018-Apr-21 14:30N 29°58' W 093°50'3 6.3
2018-Apr-21 14:00N 29°60' W 093°47'4 7.3
2018-Apr-21 13:30N 30°02' W 093°44'3 6.2
2018-Apr-21 12:58N 30°04' W 093°41'3 5.7
2018-Apr-21 12:27N 30°04' W 093°37'3 5.2
2018-Apr-21 11:57N 30°04' W 093°34'2 5.0
2018-Apr-21 11:30N 30°04' W 093°32'2 5.0
2018-Apr-21 11:00N 30°04' W 093°29'2 4.9
2018-Apr-21 10:30N 30°04' W 093°26'2 4.7
2018-Apr-21 10:00N 30°04' W 093°23'2 4.0
2018-Apr-21 09:30N 30°04' W 093°21'2 3.5
2018-Apr-21 09:00N 30°05' W 093°20'1 1.7
2018-Apr-21 08:30N 30°06' W 093°20'2 3.1
2018-Apr-21 08:00N 30°08' W 093°20'1 1.2
2018-Apr-21 07:29N 30°08' W 093°19'0 0.1
2018-Apr-21 07:00N 30°08' W 093°19'0 0.0
2018-Apr-21 06:30N 30°08' W 093°19'0 0.0
2018-Apr-21 06:00N 30°08' W 093°19'0 0.0
2018-Apr-21 05:30N 30°08' W 093°19'0 0.0
2018-Apr-21 04:59N 30°08' W 093°19'0 0.0
2018-Apr-21 04:29N 30°08' W 093°19'0 0.0
2018-Apr-21 04:00N 30°08' W 093°19'0 0.0
2018-Apr-21 03:30N 30°08' W 093°19'0 0.0
2018-Apr-21 03:00N 30°08' W 093°19'0 0.0
2018-Apr-21 02:30N 30°08' W 093°19'0 0.0
2018-Apr-21 01:58N 30°08' W 093°19'0 0.0
2018-Apr-21 01:30N 30°08' W 093°19'0 0.0
2018-Apr-21 01:00N 30°08' W 093°19'0 0.0
2018-Apr-21 00:30N 30°08' W 093°19'0 0.0
2018-Apr-21 00:00N 30°08' W 093°19'0 0.0
2018-Apr-20 23:30N 30°08' W 093°19'0 0.0
2018-Apr-20 22:57N 30°08' W 093°19'0 0.0
2018-Apr-20 22:30N 30°08' W 093°19'0 0.0
2018-Apr-20 22:00N 30°08' W 093°19'0 0.0
2018-Apr-20 21:30N 30°08' W 093°19'0 0.0
2018-Apr-20 21:00N 30°08' W 093°19'0 0.0
2018-Apr-20 20:30N 30°08' W 093°19'0 0.0
2018-Apr-20 20:00N 30°08' W 093°19'0 0.0
2018-Apr-20 19:30N 30°08' W 093°19'0 0.0
2018-Apr-20 19:00N 30°08' W 093°19'0 0.0
2018-Apr-20 18:28N 30°08' W 093°19'0 0.0
2018-Apr-20 18:00N 30°08' W 093°19'0 0.0
2018-Apr-20 17:29N 30°08' W 093°19'0 0.0
2018-Apr-20 17:00N 30°08' W 093°19'0 0.0
2018-Apr-20 16:30N 30°08' W 093°19'0 0.0
2018-Apr-20 16:00N 30°08' W 093°19'0 0.0
2018-Apr-20 15:30N 30°08' W 093°19'0 0.0
2018-Apr-20 15:00N 30°08' W 093°19'0 0.0
2018-Apr-20 14:30N 30°08' W 093°19'0 0.0
2018-Apr-20 14:00N 30°08' W 093°19'0 0.0
2018-Apr-20 13:28N 30°08' W 093°19'0 0.0
2018-Apr-20 13:00N 30°08' W 093°19'0 0.0
2018-Apr-20 12:30N 30°08' W 093°19'0 0.1
2018-Apr-20 12:00N 30°08' W 093°19'1 1.8
2018-Apr-20 11:30N 30°07' W 093°20'1 2.7
2018-Apr-20 11:00N 30°06' W 093°20'1 2.5
2018-Apr-20 10:30N 30°06' W 093°18'1 2.0
2018-Apr-20 10:00N 30°05' W 093°17'2 3.1
2018-Apr-20 09:30N 30°04' W 093°16'0 0.2
2018-Apr-20 09:00N 30°04' W 093°16'0 0.0
2018-Apr-20 08:30N 30°04' W 093°16'0 0.0
2018-Apr-20 08:00N 30°04' W 093°16'0 0.0
2018-Apr-20 07:29N 30°04' W 093°16'0 0.1
2018-Apr-20 07:00N 30°04' W 093°16'0 0.3
2018-Apr-20 06:29N 30°04' W 093°16'0 0.0
2018-Apr-20 06:00N 30°04' W 093°16'0 0.0
2018-Apr-20 05:30N 30°04' W 093°16'0 0.4
2018-Apr-20 05:00N 30°04' W 093°16'1 2.7
2018-Apr-20 04:30N 30°02' W 093°16'2 3.5
2018-Apr-20 04:00N 30°01' W 093°14'1 2.7
2018-Apr-20 03:30N 29°60' W 093°13'2 4.7
2018-Apr-20 03:00N 29°58' W 093°12'2 4.8
2018-Apr-20 02:30N 29°56' W 093°10'2 4.6
2018-Apr-20 01:59N 29°56' W 093°07'41 4.8
2018-Apr-19 17:17N 29°50' W 092°20'1 4.7
2018-Apr-19 16:58N 29°50' W 092°18'2 4.6
2018-Apr-19 16:30N 29°49' W 092°16'3 5.3
2018-Apr-19 16:00N 29°48' W 092°13'1 2.8
2018-Apr-19 15:30N 29°47' W 092°12'1 2.2
2018-Apr-19 15:00N 29°47' W 092°11'1 1.7
2018-Apr-19 14:30N 29°47' W 092°10'2 3.8
2018-Apr-19 13:59N 29°47' W 092°08'2 5.0
2018-Apr-19 13:30N 29°48' W 092°05'67 3.4
2018-Apr-18 17:54N 29°32' W 090°50'2 5.1
2018-Apr-18 17:30N 29°32' W 090°48'2 4.4
2018-Apr-18 17:00N 29°33' W 090°46'2 4.1
2018-Apr-18 16:30N 29°34' W 090°44'1 2.5
2018-Apr-18 16:00N 29°35' W 090°43'2 3.2
2018-Apr-18 15:30N 29°36' W 090°43'1 1.6
2018-Apr-18 15:00N 29°37' W 090°42'0 0.0
2018-Apr-18 14:25N 29°37' W 090°42'0 0.0
2018-Apr-18 13:58N 29°37' W 090°42'0 0.0
2018-Apr-18 13:30N 29°37' W 090°42'0 0.1
2018-Apr-18 13:00N 29°37' W 090°42'0 0.0
2018-Apr-18 12:30N 29°37' W 090°42'0 0.0
2018-Apr-18 12:00N 29°37' W 090°42'0 0.0
2018-Apr-18 11:30N 29°37' W 090°42'0 0.0
2018-Apr-18 11:00N 29°37' W 090°42'0 0.0
2018-Apr-18 10:30N 29°37' W 090°42'0 0.0
2018-Apr-18 10:00N 29°37' W 090°42'0 0.0
2018-Apr-18 09:30N 29°37' W 090°42'0 0.0
2018-Apr-18 09:00N 29°37' W 090°42'0 0.0
2018-Apr-18 08:30N 29°37' W 090°42'0 0.0
2018-Apr-18 08:00N 29°37' W 090°42'0 0.0
2018-Apr-18 07:30N 29°37' W 090°42'0 0.0
2018-Apr-18 07:00N 29°37' W 090°42'0 0.0
2018-Apr-18 06:30N 29°37' W 090°42'0 0.0
2018-Apr-18 06:00N 29°37' W 090°42'0 0.0
2018-Apr-18 05:30N 29°37' W 090°42'0 0.0
2018-Apr-18 05:00N 29°37' W 090°42'0 0.0
2018-Apr-18 04:30N 29°37' W 090°42'0 0.0
2018-Apr-18 04:00N 29°37' W 090°42'0 0.0
2018-Apr-18 03:30N 29°37' W 090°42'0 0.0
2018-Apr-18 03:00N 29°37' W 090°42'0 0.0
2018-Apr-18 02:30N 29°37' W 090°42'0 0.0
2018-Apr-18 01:58N 29°37' W 090°42'0 0.0
2018-Apr-18 01:30N 29°37' W 090°42'0 0.0
2018-Apr-18 01:00N 29°37' W 090°42'0 0.1
2018-Apr-18 00:30N 29°37' W 090°42'0 0.1
2018-Apr-18 00:00N 29°37' W 090°42'0 0.0
2018-Apr-17 23:30N 29°37' W 090°42'0 0.0
2018-Apr-17 23:00N 29°37' W 090°42'0 0.0
2018-Apr-17 22:30N 29°37' W 090°42'0 0.0
2018-Apr-17 22:00N 29°37' W 090°42'0 0.0
2018-Apr-17 21:30N 29°37' W 090°42'0 0.0
2018-Apr-17 21:00N 29°37' W 090°42'0 0.0
2018-Apr-17 20:30N 29°37' W 090°42'0 0.0
2018-Apr-17 19:59N 29°37' W 090°42'0 0.0
2018-Apr-17 19:27N 29°37' W 090°42'0 0.0
2018-Apr-17 19:00N 29°37' W 090°42'0 0.0
2018-Apr-17 18:30N 29°37' W 090°42'0 0.0
2018-Apr-17 18:00N 29°37' W 090°42'0 0.0
2018-Apr-17 17:30N 29°37' W 090°42'0 0.0
2018-Apr-17 17:00N 29°37' W 090°42'0 0.0
2018-Apr-17 16:30N 29°37' W 090°42'0 0.0
2018-Apr-17 16:00N 29°37' W 090°42'0 0.0
2018-Apr-17 15:30N 29°37' W 090°42'0 0.0
2018-Apr-17 15:00N 29°37' W 090°42'0 0.0
2018-Apr-17 14:30N 29°37' W 090°42'0 0.0
2018-Apr-17 14:00N 29°37' W 090°42'0 0.0
2018-Apr-17 13:30N 29°37' W 090°42'0 0.0
2018-Apr-17 13:00N 29°37' W 090°42'0 0.0
2018-Apr-17 12:30N 29°37' W 090°42'0 0.0
2018-Apr-17 12:00N 29°37' W 090°42'0 0.0
2018-Apr-17 11:30N 29°37' W 090°42'0 0.0
2018-Apr-17 11:00N 29°37' W 090°42'0 0.0
2018-Apr-17 10:30N 29°37' W 090°42'0 0.0
2018-Apr-17 10:00N 29°37' W 090°42'0 0.0
2018-Apr-17 09:30N 29°37' W 090°42'0 0.0
2018-Apr-17 09:00N 29°37' W 090°42'0 0.0
2018-Apr-17 08:30N 29°37' W 090°42'0 0.0
2018-Apr-17 08:00N 29°37' W 090°42'0 0.0
2018-Apr-17 07:30N 29°37' W 090°42'0 0.0
2018-Apr-17 07:00N 29°37' W 090°42'0 0.0
2018-Apr-17 06:30N 29°37' W 090°42'0 0.1
2018-Apr-17 06:00N 29°37' W 090°42'1 2.6
2018-Apr-17 05:30N 29°36' W 090°43'2 3.9
2018-Apr-17 05:00N 29°34' W 090°43'3 5.3
2018-Apr-17 04:30N 29°32' W 090°46'124 4.9
2018-Apr-16 03:07N 29°56' W 093°06'1 6.2
2018-Apr-16 02:59N 29°56' W 093°07'3 5.5
2018-Apr-16 02:30N 29°56' W 093°10'3 5.8
2018-Apr-16 02:00N 29°59' W 093°12'3 5.5
2018-Apr-16 01:30N 30°01' W 093°14'3 5.3
2018-Apr-16 01:00N 30°03' W 093°16'3 5.4
2018-Apr-16 00:30N 30°05' W 093°17'1 1.7
2018-Apr-15 23:59N 30°06' W 093°18'0 0.6
2018-Apr-15 23:30N 30°06' W 093°18'0 0.0
2018-Apr-15 23:00N 30°06' W 093°18'0 0.0
2018-Apr-15 22:30N 30°06' W 093°18'0 0.0
2018-Apr-15 22:00N 30°06' W 093°18'0 0.0
2018-Apr-15 21:30N 30°06' W 093°18'0 0.1
2018-Apr-15 21:00N 30°06' W 093°18'0 0.0
2018-Apr-15 20:30N 30°06' W 093°18'0 0.0
2018-Apr-15 20:00N 30°06' W 093°18'0 0.0
2018-Apr-15 19:30N 30°06' W 093°18'0 0.0
2018-Apr-15 18:59N 30°06' W 093°18'0 0.2
2018-Apr-15 18:30N 30°06' W 093°18'1 2.8
2018-Apr-15 18:00N 30°06' W 093°20'1 2.9
2018-Apr-15 17:30N 30°08' W 093°20'0 0.9
2018-Apr-15 17:00N 30°08' W 093°19'0 0.0
2018-Apr-15 16:30N 30°08' W 093°19'0 0.0
2018-Apr-15 16:00N 30°08' W 093°19'0 0.0
2018-Apr-15 15:30N 30°08' W 093°19'0 0.0
2018-Apr-15 14:55N 30°08' W 093°19'0 0.0
2018-Apr-15 14:30N 30°08' W 093°19'0 0.0
2018-Apr-15 14:00N 30°08' W 093°19'0 0.0
2018-Apr-15 13:30N 30°08' W 093°19'0 0.0
2018-Apr-15 13:00N 30°08' W 093°19'0 0.0
2018-Apr-15 12:30N 30°08' W 093°19'0 0.0
2018-Apr-15 12:00N 30°08' W 093°19'0 0.0
2018-Apr-15 11:30N 30°08' W 093°19'0 0.0
2018-Apr-15 11:00N 30°08' W 093°19'0 0.0
2018-Apr-15 10:28N 30°08' W 093°19'0 0.0
2018-Apr-15 10:00N 30°08' W 093°19'0 0.0
2018-Apr-15 09:30N 30°08' W 093°19'0 0.0
2018-Apr-15 09:00N 30°08' W 093°19'0 0.0
2018-Apr-15 08:30N 30°08' W 093°19'0 0.0
2018-Apr-15 08:00N 30°08' W 093°19'0 0.0
2018-Apr-15 07:30N 30°08' W 093°19'0 0.0
2018-Apr-15 06:59N 30°08' W 093°19'0 0.0
2018-Apr-15 06:30N 30°08' W 093°19'0 0.0
2018-Apr-15 06:00N 30°08' W 093°19'0 0.0
2018-Apr-15 05:28N 30°08' W 093°19'0 0.0
2018-Apr-15 05:00N 30°08' W 093°19'0 0.0
2018-Apr-15 04:26N 30°08' W 093°19'0 0.0
2018-Apr-15 04:00N 30°08' W 093°19'0 0.0
2018-Apr-15 03:30N 30°08' W 093°19'0 0.0
2018-Apr-15 03:00N 30°08' W 093°19'0 0.0
2018-Apr-15 02:30N 30°08' W 093°19'0 0.4
2018-Apr-15 02:00N 30°08' W 093°19'0 0.2
2018-Apr-15 01:30N 30°08' W 093°20'0 0.0
2018-Apr-15 01:00N 30°08' W 093°20'0 0.0
2018-Apr-15 00:30N 30°08' W 093°20'0 0.4
2018-Apr-15 00:00N 30°08' W 093°20'2 3.0
2018-Apr-14 23:30N 30°06' W 093°20'1 2.8
2018-Apr-14 23:00N 30°05' W 093°20'0 0.3
2018-Apr-14 22:30N 30°05' W 093°20'0 0.1
2018-Apr-14 22:00N 30°05' W 093°20'0 0.0
2018-Apr-14 21:30N 30°05' W 093°20'0 0.0
2018-Apr-14 21:00N 30°05' W 093°20'0 0.0
2018-Apr-14 20:30N 30°05' W 093°20'0 0.0
2018-Apr-14 20:00N 30°05' W 093°20'0 0.0
2018-Apr-14 19:30N 30°05' W 093°20'0 0.0
2018-Apr-14 19:00N 30°05' W 093°20'0 0.0
2018-Apr-14 18:30N 30°05' W 093°20'0 0.0
2018-Apr-14 18:00N 30°05' W 093°20'0 0.0
2018-Apr-14 17:30N 30°05' W 093°20'0 0.0
2018-Apr-14 17:00N 30°05' W 093°20'0 0.0
2018-Apr-14 16:30N 30°05' W 093°20'0 0.0
2018-Apr-14 16:00N 30°05' W 093°20'0 0.0
2018-Apr-14 15:30N 30°05' W 093°20'0 0.0
2018-Apr-14 15:00N 30°05' W 093°20'0 0.0
2018-Apr-14 14:30N 30°05' W 093°20'0 0.0
2018-Apr-14 14:00N 30°05' W 093°20'0 0.0
2018-Apr-14 13:30N 30°05' W 093°20'0 0.0
2018-Apr-14 13:00N 30°05' W 093°20'0 0.0
2018-Apr-14 12:30N 30°05' W 093°20'0 0.0
2018-Apr-14 12:00N 30°05' W 093°20'0 0.0
2018-Apr-14 11:30N 30°05' W 093°20'0 0.0
2018-Apr-14 11:00N 30°05' W 093°20'0 0.0
2018-Apr-14 10:30N 30°05' W 093°20'0 0.0
2018-Apr-14 09:58N 30°05' W 093°20'0 0.0
2018-Apr-14 09:30N 30°05' W 093°20'0 0.0
2018-Apr-14 08:57N 30°05' W 093°20'0 0.0
2018-Apr-14 08:30N 30°05' W 093°20'0 0.0
2018-Apr-14 07:59N 30°05' W 093°20'0 0.0
2018-Apr-14 07:30N 30°05' W 093°20'0 0.0
2018-Apr-14 06:58N 30°05' W 093°20'0 0.0
2018-Apr-14 06:30N 30°05' W 093°20'0 0.0
2018-Apr-14 06:00N 30°05' W 093°20'0 0.0
2018-Apr-14 05:30N 30°05' W 093°20'0 0.0
2018-Apr-14 05:00N 30°05' W 093°20'0 0.0
2018-Apr-14 04:30N 30°05' W 093°20'0 0.0
2018-Apr-14 04:00N 30°05' W 093°20'0 0.0
2018-Apr-14 03:30N 30°05' W 093°20'0 0.0
2018-Apr-14 03:00N 30°05' W 093°20'0 0.0
2018-Apr-14 02:30N 30°05' W 093°20'0 0.0
2018-Apr-14 02:00N 30°05' W 093°20'0 0.0
2018-Apr-14 01:30N 30°05' W 093°20'0 0.0
2018-Apr-14 00:59N 30°05' W 093°20'0 0.0
2018-Apr-14 00:30N 30°05' W 093°20'0 0.0
2018-Apr-14 00:00N 30°05' W 093°20'0 0.0
2018-Apr-13 23:29N 30°05' W 093°20'0 0.0
2018-Apr-13 23:00N 30°05' W 093°20'0 0.0
2018-Apr-13 22:27N 30°05' W 093°20'0 0.0
2018-Apr-13 22:00N 30°05' W 093°20'0 0.0
2018-Apr-13 21:30N 30°05' W 093°20'0 0.0
2018-Apr-13 21:00N 30°05' W 093°20'0 0.1
2018-Apr-13 20:30N 30°05' W 093°20'1 1.2
2018-Apr-13 20:00N 30°04' W 093°20'1 1.2
2018-Apr-13 19:28N 30°05' W 093°20'0 0.0
2018-Apr-13 18:59N 30°05' W 093°20'0 0.0
2018-Apr-13 18:30N 30°05' W 093°20'0 0.0
2018-Apr-13 17:57N 30°05' W 093°20'1 1.3
2018-Apr-13 17:30N 30°04' W 093°20'1 1.8
2018-Apr-13 17:00N 30°05' W 093°20'2 3.8
2018-Apr-13 16:30N 30°04' W 093°21'0 0.0
2018-Apr-13 16:00N 30°04' W 093°21'0 0.0
2018-Apr-13 15:30N 30°04' W 093°21'1 1.3
2018-Apr-13 15:00N 30°04' W 093°21'1 2.0
2018-Apr-13 14:30N 30°05' W 093°20'0 0.0
2018-Apr-13 14:00N 30°05' W 093°20'0 0.0
2018-Apr-13 13:30N 30°05' W 093°20'0 0.0
2018-Apr-13 13:00N 30°05' W 093°20'0 0.0
2018-Apr-13 12:30N 30°05' W 093°20'0 0.0
2018-Apr-13 12:00N 30°05' W 093°20'0 0.0
2018-Apr-13 11:30N 30°05' W 093°20'0 0.0
2018-Apr-13 11:00N 30°05' W 093°20'0 0.0
2018-Apr-13 10:29N 30°05' W 093°20'0 0.4
2018-Apr-13 10:00N 30°05' W 093°20'1 2.4
2018-Apr-13 09:30N 30°06' W 093°19'0 0.1
2018-Apr-13 09:00N 30°06' W 093°19'0 0.1
2018-Apr-13 08:30N 30°06' W 093°19'1 2.5
2018-Apr-13 08:00N 30°05' W 093°20'2 3.7
2018-Apr-13 07:30N 30°04' W 093°21'2 4.4
2018-Apr-13 07:00N 30°04' W 093°24'2 4.9
2018-Apr-13 06:30N 30°04' W 093°27'3 5.3
2018-Apr-13 06:00N 30°04' W 093°30'8 5.8
2018-Apr-13 04:35N 30°04' W 093°39'1 6.3
2018-Apr-13 04:29N 30°04' W 093°40'3 6.1
2018-Apr-13 04:00N 30°03' W 093°43'3 6.1
2018-Apr-13 03:30N 30°01' W 093°46'3 6.1
2018-Apr-13 03:00N 29°59' W 093°49'3 5.6
2018-Apr-13 02:30N 29°58' W 093°51'3 7.0
2018-Apr-13 02:00N 29°55' W 093°53'4 7.0
2018-Apr-13 01:30N 29°52' W 093°56'3 5.7
2018-Apr-13 01:00N 29°50' W 093°58'2 4.5
2018-Apr-13 00:30N 29°48' W 093°60'3 5.2
2018-Apr-13 00:00N 29°47' W 094°02'3 5.1
2018-Apr-12 23:30N 29°45' W 094°04'2 4.9
2018-Apr-12 23:00N 29°43' W 094°07'2 4.9
2018-Apr-12 22:30N 29°42' W 094°09'2 4.7
2018-Apr-12 21:59N 29°41' W 094°11'2 4.5
2018-Apr-12 21:30N 29°40' W 094°14'3 3.8
2018-Apr-12 20:47N 29°39' W 094°16'27 4.3
2018-Apr-12 14:31N 29°25' W 094°44'1 4.8
2018-Apr-12 14:14N 29°24' W 094°45'1 2.0
2018-Apr-12 13:52N 29°24' W 094°45'7 1.3
2018-Apr-12 09:02N 29°20' W 094°51'1 4.4
2018-Apr-12 08:50N 29°19' W 094°52'3 5.0
2018-Apr-12 08:15N 29°17' W 094°54'4 5.2
2018-Apr-12 07:32N 29°17' W 094°58'0 4.5
2018-Apr-12 07:30N 29°17' W 094°59'1 1.0
2018-Apr-12 06:59N 29°16' W 094°59'1 1.9
2018-Apr-12 06:30N 29°16' W 094°60'2 4.7
2018-Apr-12 06:00N 29°14' W 095°01'2 4.2
2018-Apr-12 05:30N 29°12' W 095°03'5 4.8
2018-Apr-12 04:27N 29°10' W 095°08'2 4.8
2018-Apr-12 03:57N 29°08' W 095°10'2 4.7
2018-Apr-12 03:30N 29°07' W 095°12'  

Dump ship's entire track history